createdAt,value
2023-01-19T00:00:34.400Z,99081.03
2023-01-19T00:03:37.128Z,99079.63
2023-01-19T00:06:39.112Z,99089.59
2023-01-19T00:09:40.778Z,99086.44
2023-01-19T00:12:42.582Z,99087.47
2023-01-19T00:15:44.412Z,99080.84
2023-01-19T00:18:46.316Z,99084.50
2023-01-19T00:21:48.015Z,99077.88
2023-01-19T00:24:50.352Z,99084.75
2023-01-19T00:27:52.032Z,99085.50
2023-01-19T00:30:53.632Z,99090.47
2023-01-19T00:33:55.438Z,99091.94
2023-01-19T00:36:57.035Z,99097.84
2023-01-19T00:39:58.815Z,99099.34
2023-01-19T00:43:00.907Z,99097.78
2023-01-19T00:46:02.950Z,99100.47
2023-01-19T00:49:05.737Z,99101.13
2023-01-19T00:52:07.480Z,99093.50
2023-01-19T00:55:11.608Z,99089.34
2023-01-19T00:58:13.360Z,99091.31
2023-01-19T01:01:15.131Z,99092.88
2023-01-19T01:04:16.905Z,99086.44
2023-01-19T01:07:18.542Z,99081.03
2023-01-19T01:10:23.367Z,99079.59
2023-01-19T01:13:27.541Z,99078.03
2023-01-19T01:16:29.826Z,99078.84
2023-01-19T01:19:31.800Z,99080.97
2023-01-19T01:22:33.494Z,99087.34
2023-01-19T01:25:37.789Z,99086.44
2023-01-19T01:28:39.377Z,99089.91
2023-01-19T01:31:41.148Z,99093.53
2023-01-19T01:34:42.867Z,99097.22
2023-01-19T01:37:45.687Z,99098.19
2023-01-19T01:40:47.302Z,99101.78
2023-01-19T01:43:58.153Z,99108.34
2023-01-19T01:47:00.636Z,99102.63
2023-01-19T01:50:23.658Z,99092.78
2023-01-19T01:53:25.283Z,99083.53
2023-01-19T01:56:42.529Z,99070.75
2023-01-19T01:59:48.610Z,99071.66
2023-01-19T02:02:51.119Z,99066.75
2023-01-19T02:05:57.553Z,99073.28
2023-01-19T02:09:25.932Z,99067.19
2023-01-19T02:12:47.948Z,99070.47
2023-01-19T02:16:02.905Z,99073.97
2023-01-19T02:19:07.271Z,99080.78
2023-01-19T02:22:20.331Z,99073.06
2023-01-19T02:25:22.714Z,99072.22
2023-01-19T02:28:26.077Z,99068.19
2023-01-19T02:31:31.047Z,99064.81
2023-01-19T02:34:32.906Z,99062.53
2023-01-19T02:37:40.173Z,99068.44
2023-01-19T02:40:45.166Z,99063.50
2023-01-19T02:43:49.564Z,99067.19
2023-01-19T02:46:54.193Z,99053.47
2023-01-19T02:50:00.745Z,99061.19
2023-01-19T02:53:17.294Z,99058.88
2023-01-19T02:56:49.951Z,99061.47
2023-01-19T03:00:26.937Z,99067.66
2023-01-19T03:03:40.828Z,99084.25
2023-01-19T03:07:08.815Z,99087.78
2023-01-19T03:10:20.539Z,99075.66
2023-01-19T03:13:40.213Z,99067.66
2023-01-19T03:16:55.300Z,99073.19
2023-01-19T03:19:58.074Z,99075.00
2023-01-19T03:23:04.403Z,99080.75
2023-01-19T03:26:11.060Z,99075.94
2023-01-19T03:29:15.112Z,99074.69
2023-01-19T03:32:20.109Z,99070.53
2023-01-19T03:35:25.478Z,99060.28
2023-01-19T03:38:28.951Z,99055.13
2023-01-19T03:41:32.774Z,99064.69
2023-01-19T03:44:38.095Z,99065.59
2023-01-19T03:47:40.530Z,99071.34
2023-01-19T03:50:43.299Z,99060.72
2023-01-19T03:53:45.848Z,99052.13
2023-01-19T03:56:47.607Z,99049.66
2023-01-19T03:59:49.537Z,99047.03
2023-01-19T04:02:51.267Z,99051.78
2023-01-19T04:05:53.029Z,99050.38
2023-01-19T04:08:56.021Z,99055.53
2023-01-19T04:11:57.605Z,99053.91
2023-01-19T04:14:59.298Z,99052.69
2023-01-19T04:18:01.173Z,99051.03
2023-01-19T04:21:04.976Z,99055.56
2023-01-19T04:24:07.397Z,99056.00
2023-01-19T04:27:09.161Z,99060.28
2023-01-19T04:30:11.356Z,99060.91
2023-01-19T04:33:12.897Z,99055.94
2023-01-19T04:36:14.623Z,99058.38
2023-01-19T04:39:16.415Z,99056.84
2023-01-19T04:42:18.361Z,99049.44
2023-01-19T04:45:20.438Z,99051.53
2023-01-19T04:48:22.191Z,99048.94
2023-01-19T04:51:24.141Z,99038.25
2023-01-19T04:54:27.665Z,99039.50
2023-01-19T04:57:30.237Z,99043.41
2023-01-19T05:00:32.176Z,99039.75
2023-01-19T05:03:33.793Z,99044.97
2023-01-19T05:06:35.633Z,99045.56
2023-01-19T05:09:37.324Z,99041.94
2023-01-19T05:12:39.156Z,99033.22
2023-01-19T05:15:40.757Z,99034.69
2023-01-19T05:18:42.385Z,99039.56
2023-01-19T05:21:44.106Z,99045.81
2023-01-19T05:24:45.827Z,99050.81
2023-01-19T05:27:47.892Z,99048.47
2023-01-19T05:30:50.193Z,99053.75
2023-01-19T05:33:52.281Z,99059.03
2023-01-19T05:36:54.194Z,99062.03
2023-01-19T05:39:56.175Z,99058.41
2023-01-19T05:43:01.126Z,99071.06
2023-01-19T05:46:09.473Z,99073.31
2023-01-19T05:49:12.917Z,99075.59
2023-01-19T05:52:14.943Z,99074.59
2023-01-19T05:55:16.682Z,99090.31
2023-01-19T05:58:21.619Z,99087.13
2023-01-19T06:01:23.548Z,99089.59
2023-01-19T06:04:25.423Z,99078.69
2023-01-19T06:07:29.090Z,99072.06
2023-01-19T06:10:31.196Z,99084.84
2023-01-19T06:13:33.722Z,99085.03
2023-01-19T06:16:35.686Z,99086.03
2023-01-19T06:19:37.891Z,99096.94
2023-01-19T06:22:39.763Z,99086.69
2023-01-19T06:25:41.551Z,99096.13
2023-01-19T06:28:43.115Z,99085.50
2023-01-19T06:31:45.538Z,99089.47
2023-01-19T06:34:47.461Z,99092.75
2023-01-19T06:37:49.088Z,99091.03
2023-01-19T06:40:58.823Z,99096.19
2023-01-19T06:44:00.814Z,99099.56
2023-01-19T06:47:14.920Z,99106.56
2023-01-19T06:50:18.330Z,99103.59
2023-01-19T06:53:22.186Z,99103.88
2023-01-19T06:56:24.051Z,99104.50
2023-01-19T06:59:26.222Z,99103.41
2023-01-19T07:02:28.686Z,99105.97
2023-01-19T07:05:30.787Z,99109.84
2023-01-19T07:08:36.432Z,99107.03
2023-01-19T07:11:38.217Z,99111.13
2023-01-19T07:14:40.101Z,99115.34
2023-01-19T07:17:42.526Z,99124.59
2023-01-19T07:20:45.958Z,99140.78
2023-01-19T07:23:53.361Z,99132.69
2023-01-19T07:26:55.125Z,99131.56
2023-01-19T07:29:57.214Z,99130.69
2023-01-19T07:32:59.257Z,99133.03
2023-01-19T07:36:01.414Z,99140.59
2023-01-19T07:39:03.194Z,99132.31
2023-01-19T07:42:05.100Z,99141.97
2023-01-19T07:45:07.869Z,99145.50
2023-01-19T07:48:10.036Z,99141.03
2023-01-19T07:51:19.074Z,99144.50
2023-01-19T07:54:20.938Z,99152.75
2023-01-19T07:57:23.209Z,99158.41
2023-01-19T08:00:25.482Z,99165.88
2023-01-19T08:03:27.273Z,99166.88
2023-01-19T08:06:39.884Z,99162.78
2023-01-19T08:09:42.552Z,99178.94
2023-01-19T08:12:44.363Z,99179.41
2023-01-19T08:15:53.105Z,99173.31
2023-01-19T08:18:55.383Z,99161.03
2023-01-19T08:21:58.925Z,99166.22
2023-01-19T08:25:01.081Z,99164.22
2023-01-19T08:28:05.356Z,99161.41
2023-01-19T08:31:19.153Z,99174.13
2023-01-19T08:34:22.109Z,99173.41
2023-01-19T08:37:24.891Z,99170.56
2023-01-19T08:40:28.736Z,99180.28
2023-01-19T08:43:30.341Z,99180.84
2023-01-19T08:46:32.148Z,99185.53
2023-01-19T08:49:34.083Z,99183.56
2023-01-19T08:52:35.852Z,99192.22
2023-01-19T08:55:38.013Z,99197.38
2023-01-19T08:58:42.264Z,99207.19
2023-01-19T09:01:46.217Z,99208.03
2023-01-19T09:04:48.093Z,99205.28
2023-01-19T09:07:51.844Z,99205.19
2023-01-19T09:10:53.618Z,99215.28
2023-01-19T09:13:55.590Z,99211.13
2023-01-19T09:16:57.419Z,99215.38
2023-01-19T09:19:59.392Z,99221.38
2023-01-19T09:23:01.181Z,99219.19
2023-01-19T09:26:05.376Z,99228.78
2023-01-19T09:29:07.297Z,99235.16
2023-01-19T09:32:11.229Z,99233.78
2023-01-19T09:35:14.648Z,99239.34
2023-01-19T09:38:16.967Z,99237.09
2023-01-19T09:41:22.846Z,99236.28
2023-01-19T09:44:35.529Z,99237.44
2023-01-19T09:47:39.394Z,99240.63
2023-01-19T09:50:47.025Z,99247.47
2023-01-19T09:54:03.114Z,99248.13
2023-01-19T09:57:11.353Z,99247.59
2023-01-19T10:00:24.516Z,99260.88
2023-01-19T10:03:26.238Z,99261.34
2023-01-19T10:06:30.678Z,99273.53
2023-01-19T10:09:47.727Z,99273.88
2023-01-19T10:13:23.781Z,99277.53
2023-01-19T10:16:31.604Z,99277.06
2023-01-19T10:19:38.163Z,99278.06
2023-01-19T10:22:49.853Z,99280.81
2023-01-19T10:25:52.289Z,99284.56
2023-01-19T10:29:21.110Z,99283.94
2023-01-19T10:32:27.617Z,99280.72
2023-01-19T10:35:30.054Z,99285.16
2023-01-19T10:38:34.337Z,99274.88
2023-01-19T10:41:53.337Z,99278.59
2023-01-19T10:44:55.647Z,99278.31
2023-01-19T10:48:07.675Z,99269.66
2023-01-19T10:51:11.101Z,99279.47
2023-01-19T10:54:13.714Z,99277.44
2023-01-19T10:57:31.414Z,99282.38
2023-01-19T11:00:41.703Z,99289.38
2023-01-19T11:03:43.787Z,99280.69
2023-01-19T11:06:45.571Z,99286.09
2023-01-19T11:09:48.747Z,99285.28
2023-01-19T11:13:04.600Z,99284.16
2023-01-19T11:16:15.792Z,99282.97
2023-01-19T11:19:27.986Z,99295.53
2023-01-19T11:22:33.428Z,99287.72
2023-01-19T11:25:36.298Z,99289.13
2023-01-19T11:28:44.974Z,99288.97
2023-01-19T11:31:47.139Z,99289.94
2023-01-19T11:34:49.749Z,99290.19
2023-01-19T11:38:06.461Z,99283.91
2023-01-19T11:41:18.766Z,99288.00
2023-01-19T11:44:31.769Z,99284.84
2023-01-19T11:47:43.927Z,99288.59
2023-01-19T11:50:46.348Z,99288.28
2023-01-19T11:53:52.737Z,99299.00
2023-01-19T11:56:58.878Z,99296.50
2023-01-19T12:00:05.185Z,99308.56
2023-01-19T12:03:21.161Z,99314.84
2023-01-19T12:06:30.962Z,99321.00
2023-01-19T12:09:42.811Z,99327.09
2023-01-19T12:12:44.880Z,99327.91
2023-01-19T12:15:48.219Z,99329.97
2023-01-19T12:19:16.122Z,99329.59
2023-01-19T12:22:21.082Z,99332.22
2023-01-19T12:25:29.820Z,99335.31
2023-01-19T12:28:36.801Z,99332.28
2023-01-19T12:31:40.581Z,99343.94
2023-01-19T12:34:55.884Z,99345.72
2023-01-19T12:37:57.780Z,99354.00
2023-01-19T12:41:19.854Z,99359.22
2023-01-19T12:44:24.363Z,99355.66
2023-01-19T12:47:27.354Z,99359.25
2023-01-19T12:50:40.231Z,99364.63
2023-01-19T12:53:54.622Z,99359.53
2023-01-19T12:57:17.116Z,99367.16
2023-01-19T13:00:24.682Z,99365.88
2023-01-19T13:03:26.960Z,99375.47
2023-01-19T13:07:05.700Z,99375.91
2023-01-19T13:10:44.771Z,99388.22
2023-01-19T13:13:59.154Z,99398.88
2023-01-19T13:17:03.646Z,99398.59
2023-01-19T13:20:22.687Z,99397.78
2023-01-19T13:23:27.405Z,99397.34
2023-01-19T13:26:33.201Z,99409.44
2023-01-19T13:29:37.444Z,99406.63
2023-01-19T13:32:42.268Z,99404.53
2023-01-19T13:35:54.660Z,99405.81
2023-01-19T13:39:00.054Z,99401.41
2023-01-19T13:42:06.154Z,99419.00
2023-01-19T13:45:11.771Z,99415.06
2023-01-19T13:48:18.030Z,99414.59
2023-01-19T13:51:20.464Z,99412.69
2023-01-19T13:54:26.120Z,99417.63
2023-01-19T13:57:27.764Z,99423.34
2023-01-19T14:00:30.974Z,99428.44
2023-01-19T14:03:32.969Z,99433.09
2023-01-19T14:06:36.822Z,99432.00
2023-01-19T14:09:39.570Z,99433.75
2023-01-19T14:12:54.554Z,99445.34
2023-01-19T14:16:06.218Z,99442.94
2023-01-19T14:19:08.397Z,99441.50
2023-01-19T14:22:10.279Z,99451.72
2023-01-19T14:25:35.678Z,99455.97
2023-01-19T14:28:45.726Z,99457.91
2023-01-19T14:31:50.050Z,99464.38
2023-01-19T14:35:07.397Z,99461.34
2023-01-19T14:38:14.299Z,99469.28
2023-01-19T14:41:49.697Z,99468.66
2023-01-19T14:44:53.548Z,99476.84
2023-01-19T14:47:55.646Z,99488.66
2023-01-19T14:51:05.332Z,99495.94
2023-01-19T14:54:18.074Z,99492.88
2023-01-19T14:57:20.368Z,99496.09
2023-01-19T15:00:28.225Z,99503.00
2023-01-19T15:03:44.727Z,99501.88
2023-01-19T15:06:48.790Z,99504.63
2023-01-19T15:09:51.319Z,99511.09
2023-01-19T15:12:54.972Z,99508.44
2023-01-19T15:15:58.663Z,99512.25
2023-01-19T15:19:00.643Z,99516.75
2023-01-19T15:22:02.466Z,99517.75
2023-01-19T15:25:04.532Z,99525.75
2023-01-19T15:28:12.485Z,99533.00
2023-01-19T15:31:26.938Z,99543.59
2023-01-19T15:34:28.749Z,99546.72
2023-01-19T15:37:30.720Z,99558.06
2023-01-19T15:40:32.550Z,99559.22
2023-01-19T15:43:34.272Z,99556.09
2023-01-19T15:46:36.288Z,99568.31
2023-01-19T15:49:38.096Z,99573.47
2023-01-19T15:52:39.910Z,99578.91
2023-01-19T15:55:42.175Z,99582.25
2023-01-19T15:58:44.929Z,99581.09
2023-01-19T16:01:47.170Z,99583.31
2023-01-19T16:04:49.685Z,99603.53
2023-01-19T16:07:52.010Z,99600.94
2023-01-19T16:10:54.088Z,99590.81
2023-01-19T16:13:55.994Z,99597.91
2023-01-19T16:16:59.975Z,99591.97
2023-01-19T16:20:01.944Z,99601.25
2023-01-19T16:23:19.601Z,99600.91
2023-01-19T16:26:27.470Z,99604.25
2023-01-19T16:29:30.479Z,99619.00
2023-01-19T16:32:34.021Z,99621.47
2023-01-19T16:35:35.958Z,99620.06
2023-01-19T16:38:38.027Z,99627.38
2023-01-19T16:41:40.302Z,99624.78
2023-01-19T16:44:42.605Z,99637.56
2023-01-19T16:47:46.895Z,99636.81
2023-01-19T16:51:06.090Z,99633.16
2023-01-19T16:54:12.225Z,99640.41
2023-01-19T16:57:15.163Z,99643.16
2023-01-19T17:00:17.737Z,99644.00
2023-01-19T17:03:19.745Z,99654.00
2023-01-19T17:06:23.450Z,99657.75
2023-01-19T17:09:25.157Z,99658.41
2023-01-19T17:12:26.977Z,99666.56
2023-01-19T17:15:30.670Z,99671.75
2023-01-19T17:18:34.683Z,99668.75
2023-01-19T17:21:36.602Z,99673.28
2023-01-19T17:24:42.527Z,99670.22
2023-01-19T17:27:44.595Z,99676.19
2023-01-19T17:30:47.564Z,99678.81
2023-01-19T17:33:50.871Z,99681.47
2023-01-19T17:36:52.861Z,99686.63
2023-01-19T17:39:55.292Z,99694.41
2023-01-19T17:42:57.019Z,99693.84
2023-01-19T17:45:59.938Z,99695.69
2023-01-19T17:49:03.653Z,99707.41
2023-01-19T17:52:05.343Z,99706.81
2023-01-19T17:55:08.590Z,99713.81
2023-01-19T17:58:12.388Z,99714.22
2023-01-19T18:01:19.224Z,99716.06
2023-01-19T18:04:21.045Z,99716.06
2023-01-19T18:07:22.901Z,99717.38
2023-01-19T18:10:24.741Z,99723.75
2023-01-19T18:13:27.512Z,99721.50
2023-01-19T18:16:30.222Z,99725.91
2023-01-19T18:19:32.298Z,99729.94
2023-01-19T18:22:34.362Z,99732.69
2023-01-19T18:25:38.599Z,99732.13
2023-01-19T18:28:40.675Z,99732.13
2023-01-19T18:31:42.935Z,99736.09
2023-01-19T18:34:45.788Z,99747.53
2023-01-19T18:37:48.622Z,99746.38
2023-01-19T18:41:00.797Z,99746.31
2023-01-19T18:44:03.082Z,99748.09
2023-01-19T18:47:05.815Z,99750.56
2023-01-19T18:50:08.744Z,99755.84
2023-01-19T18:53:10.837Z,99759.25
2023-01-19T18:56:14.668Z,99752.41
2023-01-19T18:59:16.504Z,99760.72
2023-01-19T19:02:18.408Z,99775.81
2023-01-19T19:05:20.091Z,99776.38
2023-01-19T19:08:22.218Z,99774.84
2023-01-19T19:11:25.444Z,99767.44
2023-01-19T19:14:27.339Z,99765.28
2023-01-19T19:17:29.497Z,99770.59
2023-01-19T19:20:31.142Z,99774.16
2023-01-19T19:23:33.749Z,99777.31
2023-01-19T19:26:35.747Z,99781.03
2023-01-19T19:29:37.429Z,99785.41
2023-01-19T19:32:39.251Z,99792.56
2023-01-19T19:35:41.104Z,99799.34
2023-01-19T19:38:44.609Z,99798.53
2023-01-19T19:41:46.486Z,99802.84
2023-01-19T19:44:48.336Z,99812.44
2023-01-19T19:47:51.276Z,99805.03
2023-01-19T19:50:53.990Z,99801.03
2023-01-19T19:53:59.522Z,99799.50
2023-01-19T19:57:01.370Z,99805.53
2023-01-19T20:00:05.177Z,99806.34
2023-01-19T20:03:13.613Z,99812.34
2023-01-19T20:06:21.427Z,99816.59
2023-01-19T20:09:23.840Z,99818.19
2023-01-19T20:12:25.654Z,99820.78
2023-01-19T20:15:28.745Z,99825.22
2023-01-19T20:18:31.846Z,99830.69
2023-01-19T20:21:37.702Z,99826.47
2023-01-19T20:24:39.487Z,99829.66
2023-01-19T20:27:41.454Z,99832.38
2023-01-19T20:30:43.740Z,99833.06
2023-01-19T20:33:50.850Z,99829.66
2023-01-19T20:36:54.029Z,99826.34
2023-01-19T20:39:55.777Z,99833.72
2023-01-19T20:42:57.425Z,99843.31
2023-01-19T20:46:00.227Z,99846.09
2023-01-19T20:49:02.058Z,99850.38
2023-01-19T20:52:04.171Z,99852.97
2023-01-19T20:55:08.911Z,99862.22
2023-01-19T20:58:10.712Z,99863.63
2023-01-19T21:01:15.500Z,99870.81
2023-01-19T21:04:17.878Z,99882.28
2023-01-19T21:07:19.879Z,99879.81
2023-01-19T21:10:22.281Z,99876.19
2023-01-19T21:13:24.404Z,99888.94
2023-01-19T21:16:32.272Z,99893.22
2023-01-19T21:19:34.085Z,99889.03
2023-01-19T21:22:35.885Z,99895.94
2023-01-19T21:25:38.705Z,99896.22
2023-01-19T21:28:40.607Z,99900.38
2023-01-19T21:31:42.761Z,99898.75
2023-01-19T21:34:45.717Z,99900.53
2023-01-19T21:37:47.889Z,99902.56
2023-01-19T21:40:50.502Z,99910.03
2023-01-19T21:43:54.906Z,99910.28
2023-01-19T21:46:56.853Z,99911.94
2023-01-19T21:49:58.851Z,99917.25
2023-01-19T21:53:00.566Z,99919.47
2023-01-19T21:56:02.304Z,99922.97
2023-01-19T21:59:04.962Z,99925.00
2023-01-19T22:02:06.804Z,99923.28
2023-01-19T22:05:09.143Z,99928.53
2023-01-19T22:08:10.936Z,99926.25
2023-01-19T22:11:15.213Z,99941.38
2023-01-19T22:14:16.846Z,99940.38
2023-01-19T22:17:18.662Z,99948.13
2023-01-19T22:20:20.750Z,99950.00
2023-01-19T22:23:23.628Z,99951.88
2023-01-19T22:26:26.586Z,99956.00
2023-01-19T22:29:28.499Z,99952.78
2023-01-19T22:32:31.558Z,99968.00
2023-01-19T22:35:33.396Z,99962.16
2023-01-19T22:38:35.474Z,99969.84
2023-01-19T22:41:42.910Z,99976.72
2023-01-19T22:44:46.155Z,99979.16
2023-01-19T22:47:48.020Z,99979.16
2023-01-19T22:50:56.133Z,99986.66
2023-01-19T22:53:58.299Z,99987.59
2023-01-19T22:57:00.329Z,99984.28
2023-01-19T23:00:06.831Z,99992.84
2023-01-19T23:03:08.483Z,99992.09
2023-01-19T23:06:28.079Z,99985.38
2023-01-19T23:09:29.864Z,99982.81
2023-01-19T23:12:31.735Z,99987.19
2023-01-19T23:15:34.433Z,99993.16
2023-01-19T23:18:36.201Z,99992.28
2023-01-19T23:21:37.780Z,99999.25
2023-01-19T23:24:39.756Z,100006.13
2023-01-19T23:27:41.760Z,100005.47
2023-01-19T23:30:44.356Z,100007.22
2023-01-19T23:33:46.575Z,100008.06
2023-01-19T23:36:48.467Z,100005.69
2023-01-19T23:39:50.356Z,100016.75
2023-01-19T23:42:52.120Z,100012.50
2023-01-19T23:45:54.032Z,100011.56
2023-01-19T23:48:55.839Z,100020.94
2023-01-19T23:51:58.600Z,100024.13
2023-01-19T23:55:00.342Z,100027.41
2023-01-19T23:58:02.163Z,100022.16
